createdAt,value
2023-01-27T00:01:59.237Z,100.00
2023-01-27T00:04:29.046Z,100.00
2023-01-27T00:06:59.035Z,100.00
2023-01-27T00:09:28.942Z,100.00
2023-01-27T00:12:11.050Z,100.00
2023-01-27T00:14:43.867Z,100.00
2023-01-27T00:17:13.936Z,100.00
2023-01-27T00:19:44.934Z,100.00
2023-01-27T00:22:27.048Z,100.00
2023-01-27T00:24:57.044Z,100.00
2023-01-27T00:27:27.333Z,100.00
2023-01-27T00:29:59.738Z,100.00
2023-01-27T00:32:42.082Z,100.00
2023-01-27T00:35:12.836Z,100.00
2023-01-27T00:37:45.187Z,100.00
2023-01-27T00:40:16.804Z,100.00
2023-01-27T00:42:46.973Z,100.00
2023-01-27T00:45:31.916Z,100.00
2023-01-27T00:48:01.651Z,100.00
2023-01-27T00:50:31.544Z,100.00
2023-01-27T00:53:02.409Z,100.00
2023-01-27T00:55:32.137Z,100.00
2023-01-27T00:58:01.859Z,100.00
2023-01-27T01:00:34.244Z,100.00
2023-01-27T01:03:04.094Z,100.00
2023-01-27T01:05:34.005Z,100.00
2023-01-27T01:08:03.770Z,100.00
2023-01-27T01:10:33.773Z,100.00
2023-01-27T01:13:03.731Z,100.00
2023-01-27T01:15:38.535Z,100.00
2023-01-27T01:18:09.018Z,100.00
2023-01-27T01:20:43.037Z,100.00
2023-01-27T01:23:12.924Z,100.00
2023-01-27T01:25:42.790Z,100.00
2023-01-27T01:28:13.109Z,100.00
2023-01-27T01:30:45.474Z,100.00
2023-01-27T01:33:15.513Z,100.00
2023-01-27T01:35:45.383Z,100.00
2023-01-27T01:38:15.908Z,100.00
2023-01-27T01:40:46.421Z,100.00
2023-01-27T01:43:18.664Z,100.00
2023-01-27T01:45:54.120Z,100.00
2023-01-27T01:48:34.106Z,100.00
2023-01-27T01:51:10.763Z,100.00
2023-01-27T01:53:46.762Z,100.00
2023-01-27T01:56:21.023Z,100.00
2023-01-27T01:58:52.482Z,100.00
2023-01-27T02:01:25.161Z,100.00
2023-01-27T02:03:59.788Z,100.00
2023-01-27T02:06:31.096Z,100.00
2023-01-27T02:09:02.360Z,100.00
2023-01-27T02:11:32.340Z,100.00
2023-01-27T02:14:04.288Z,100.00
2023-01-27T02:16:36.889Z,100.00
2023-01-27T02:19:08.660Z,100.00
2023-01-27T02:21:38.523Z,100.00
2023-01-27T02:24:12.684Z,100.00
2023-01-27T02:26:46.830Z,100.00
2023-01-27T02:29:18.592Z,100.00
2023-01-27T02:31:48.517Z,100.00
2023-01-27T02:34:21.221Z,100.00
2023-01-27T02:36:57.230Z,100.00
2023-01-27T02:39:34.155Z,100.00
2023-01-27T02:42:09.056Z,100.00
2023-01-27T02:44:39.007Z,100.00
2023-01-27T02:47:09.334Z,100.00
2023-01-27T02:49:39.354Z,100.00
2023-01-27T02:52:09.379Z,100.00
2023-01-27T02:54:39.249Z,100.00
2023-01-27T02:57:11.690Z,100.00
2023-01-27T02:59:41.450Z,100.00
2023-01-27T03:02:18.909Z,100.00
2023-01-27T03:04:49.105Z,100.00
2023-01-27T03:07:19.133Z,100.00
2023-01-27T03:09:48.833Z,100.00
2023-01-27T03:12:24.294Z,100.00
2023-01-27T03:15:07.537Z,100.00
2023-01-27T03:17:50.514Z,100.00
2023-01-27T03:20:20.706Z,100.00
2023-01-27T03:22:50.932Z,100.00
2023-01-27T03:25:21.048Z,100.00
2023-01-27T03:27:53.843Z,100.00
2023-01-27T03:30:23.781Z,100.00
2023-01-27T03:32:53.729Z,100.00
2023-01-27T03:35:23.956Z,100.00
2023-01-27T03:38:06.098Z,100.00
2023-01-27T03:40:48.322Z,100.00
2023-01-27T03:43:33.421Z,100.00
2023-01-27T03:46:20.893Z,100.00
2023-01-27T03:48:55.656Z,100.00
2023-01-27T03:51:28.111Z,100.00
2023-01-27T03:53:58.108Z,100.00
2023-01-27T03:56:27.904Z,100.00
2023-01-27T03:59:00.626Z,100.00
2023-01-27T04:01:30.420Z,100.00
2023-01-27T04:04:12.585Z,100.00
2023-01-27T04:06:59.215Z,100.00
2023-01-27T04:09:31.022Z,100.00
2023-01-27T04:12:00.132Z,100.00
2023-01-27T04:14:35.551Z,100.00
2023-01-27T04:17:08.118Z,100.00
2023-01-27T04:19:37.953Z,100.00
2023-01-27T04:22:08.561Z,100.00
2023-01-27T04:24:38.470Z,100.00
2023-01-27T04:27:10.345Z,100.00
2023-01-27T04:29:44.209Z,100.00
2023-01-27T04:32:15.973Z,100.00
2023-01-27T04:34:45.948Z,100.00
2023-01-27T04:37:15.762Z,100.00
2023-01-27T04:39:45.843Z,100.00
2023-01-27T04:42:15.570Z,100.00
2023-01-27T04:44:47.873Z,100.00
2023-01-27T04:47:17.659Z,100.00
2023-01-27T04:49:47.450Z,100.00
2023-01-27T04:52:17.316Z,100.00
2023-01-27T04:54:47.180Z,100.00
2023-01-27T04:57:16.987Z,100.00
2023-01-27T04:59:50.196Z,100.00
2023-01-27T05:02:20.029Z,100.00
2023-01-27T05:04:49.848Z,100.00
2023-01-27T05:07:21.622Z,100.00
2023-01-27T05:09:51.441Z,100.00
2023-01-27T05:12:21.225Z,100.00
2023-01-27T05:14:53.704Z,100.00
2023-01-27T05:17:23.589Z,100.00
2023-01-27T05:19:53.524Z,100.00
2023-01-27T05:22:23.329Z,100.00
2023-01-27T05:24:53.092Z,100.00
2023-01-27T05:27:23.052Z,100.00
2023-01-27T05:29:55.909Z,100.00
2023-01-27T05:32:25.616Z,100.00
2023-01-27T05:34:55.381Z,100.00
2023-01-27T05:37:25.177Z,100.00
2023-01-27T05:39:55.450Z,100.00
2023-01-27T05:42:25.222Z,100.00
2023-01-27T05:44:57.764Z,100.00
2023-01-27T05:47:27.722Z,100.00
2023-01-27T05:49:57.785Z,100.00
2023-01-27T05:52:27.559Z,100.00
2023-01-27T05:54:57.371Z,100.00
2023-01-27T05:57:27.273Z,100.00
2023-01-27T05:59:59.649Z,100.00
2023-01-27T06:02:29.540Z,100.00
2023-01-27T06:04:59.452Z,100.00
2023-01-27T06:07:29.287Z,100.00
2023-01-27T06:09:59.169Z,100.00
2023-01-27T06:12:28.869Z,100.00
2023-01-27T06:15:01.242Z,100.00
2023-01-27T06:17:31.046Z,100.00
2023-01-27T06:20:02.354Z,100.00
2023-01-27T06:22:32.287Z,100.00
2023-01-27T06:25:02.042Z,100.00
2023-01-27T06:27:31.849Z,100.00
2023-01-27T06:30:04.541Z,100.00
2023-01-27T06:32:34.307Z,100.00
2023-01-27T06:35:04.094Z,100.00
2023-01-27T06:37:33.985Z,100.00
2023-01-27T06:40:03.826Z,100.00
2023-01-27T06:42:33.826Z,100.00
2023-01-27T06:45:06.576Z,100.00
2023-01-27T06:47:36.506Z,100.00
2023-01-27T06:50:06.340Z,100.00
2023-01-27T06:52:36.490Z,100.00
2023-01-27T06:55:07.491Z,100.00
2023-01-27T06:57:37.657Z,100.00
2023-01-27T07:00:12.315Z,100.00
2023-01-27T07:02:42.283Z,100.00
2023-01-27T07:05:12.473Z,100.00
2023-01-27T07:07:42.695Z,100.00
2023-01-27T07:10:14.143Z,100.00
2023-01-27T07:12:44.203Z,100.00
2023-01-27T07:15:17.165Z,100.00
2023-01-27T07:17:47.042Z,100.00
2023-01-27T07:20:17.044Z,100.00
2023-01-27T07:22:46.735Z,100.00
2023-01-27T07:25:16.543Z,100.00
2023-01-27T07:27:46.680Z,100.00
2023-01-27T07:30:19.798Z,100.00
2023-01-27T07:32:50.685Z,100.00
2023-01-27T07:35:21.150Z,100.00
2023-01-27T07:37:50.915Z,100.00
2023-01-27T07:40:21.766Z,100.00
2023-01-27T07:42:54.342Z,100.00
2023-01-27T07:45:26.921Z,100.00
2023-01-27T07:47:57.142Z,100.00
2023-01-27T07:50:26.909Z,100.00
2023-01-27T07:52:56.781Z,100.00
2023-01-27T07:55:26.833Z,100.00
2023-01-27T07:57:56.645Z,100.00
2023-01-27T08:00:32.983Z,100.00
2023-01-27T08:03:05.555Z,100.00
2023-01-27T08:05:38.675Z,100.00
2023-01-27T08:08:09.367Z,100.00
2023-01-27T08:10:39.098Z,100.00
2023-01-27T08:13:12.249Z,100.00
2023-01-27T08:15:44.817Z,100.00
2023-01-27T08:18:14.727Z,100.00
2023-01-27T08:20:46.119Z,100.00
2023-01-27T08:23:16.112Z,100.00
2023-01-27T08:25:52.300Z,100.00
2023-01-27T08:28:22.816Z,100.00
2023-01-27T08:30:55.976Z,100.00
2023-01-27T08:33:27.648Z,100.00
2023-01-27T08:35:57.662Z,100.00
2023-01-27T08:38:27.451Z,100.00
2023-01-27T08:40:57.431Z,100.00
2023-01-27T08:43:27.182Z,100.00
2023-01-27T08:46:01.046Z,100.00
2023-01-27T08:48:31.952Z,100.00
2023-01-27T08:51:02.859Z,100.00
2023-01-27T08:53:33.719Z,100.00
2023-01-27T08:56:09.088Z,100.00
2023-01-27T08:58:39.235Z,100.00
2023-01-27T09:01:12.517Z,100.00
2023-01-27T09:03:42.489Z,100.00
2023-01-27T09:06:14.403Z,100.00
2023-01-27T09:08:44.449Z,100.00
2023-01-27T09:11:16.363Z,100.00
2023-01-27T09:13:47.058Z,100.00
2023-01-27T09:16:19.828Z,100.00
2023-01-27T09:18:49.699Z,100.00
2023-01-27T09:21:19.466Z,100.00
2023-01-27T09:23:51.828Z,100.00
2023-01-27T09:26:22.150Z,100.00
2023-01-27T09:28:52.105Z,100.00
2023-01-27T09:31:24.736Z,100.00
2023-01-27T09:33:54.666Z,100.00
2023-01-27T09:36:25.162Z,100.00
2023-01-27T09:38:59.955Z,100.00
2023-01-27T09:41:56.235Z,100.00
2023-01-27T09:44:58.746Z,100.00
2023-01-27T09:47:51.929Z,100.00
2023-01-27T09:50:41.382Z,100.00
2023-01-27T09:53:54.312Z,100.00
2023-01-27T09:56:42.754Z,100.00
2023-01-27T09:59:27.402Z,100.00
2023-01-27T10:02:06.672Z,100.00
2023-01-27T10:05:16.559Z,100.00
2023-01-27T10:08:09.524Z,100.00
2023-01-27T10:11:00.420Z,100.00
2023-01-27T10:13:41.247Z,100.00
2023-01-27T10:16:26.977Z,100.00
2023-01-27T10:19:12.601Z,100.00
2023-01-27T10:21:55.583Z,100.00
2023-01-27T10:24:39.417Z,100.00
2023-01-27T10:27:16.584Z,100.00
2023-01-27T10:29:49.155Z,100.00
2023-01-27T10:32:29.701Z,100.00
2023-01-27T10:35:12.035Z,100.00
2023-01-27T10:37:56.849Z,100.00
2023-01-27T10:40:36.898Z,100.00
2023-01-27T10:43:12.660Z,100.00
2023-01-27T10:45:50.579Z,100.00
2023-01-27T10:48:30.915Z,100.00
2023-01-27T10:51:04.743Z,100.00
2023-01-27T10:53:46.768Z,100.00
2023-01-27T10:56:24.971Z,100.00
2023-01-27T10:59:03.418Z,100.00
2023-01-27T11:01:37.735Z,100.00
2023-01-27T11:04:16.660Z,100.00
2023-01-27T11:06:49.231Z,100.00
2023-01-27T11:09:28.769Z,100.00
2023-01-27T11:12:03.841Z,100.00
2023-01-27T11:14:40.870Z,100.00
2023-01-27T11:17:19.487Z,100.00
2023-01-27T11:19:59.189Z,100.00
2023-01-27T11:22:37.511Z,100.00
2023-01-27T11:25:26.070Z,100.00
2023-01-27T11:28:05.168Z,100.00
2023-01-27T11:30:41.314Z,100.00
2023-01-27T11:33:22.069Z,100.00
2023-01-27T11:35:52.722Z,100.00
2023-01-27T11:38:25.337Z,100.00
2023-01-27T11:40:58.102Z,100.00
2023-01-27T11:43:29.803Z,100.00
2023-01-27T11:46:05.384Z,100.00
2023-01-27T11:48:42.748Z,100.00
2023-01-27T11:51:20.931Z,100.00
2023-01-27T11:53:55.981Z,100.00
2023-01-27T11:56:28.622Z,100.00
2023-01-27T11:59:04.383Z,100.00
2023-01-27T12:01:48.074Z,100.00
2023-01-27T12:04:25.135Z,100.00
2023-01-27T12:06:58.338Z,100.00
2023-01-27T12:09:37.378Z,100.00
2023-01-27T12:12:24.418Z,100.00
2023-01-27T12:14:56.453Z,100.00
2023-01-27T12:17:32.847Z,100.00
2023-01-27T12:20:09.897Z,100.00
2023-01-27T12:22:42.024Z,100.00
2023-01-27T12:25:20.866Z,100.00
2023-01-27T12:27:57.917Z,100.00
2023-01-27T12:30:30.351Z,100.00
2023-01-27T12:33:04.077Z,100.00
2023-01-27T12:35:37.785Z,100.00
2023-01-27T12:38:10.565Z,100.00
2023-01-27T12:40:45.472Z,100.00
2023-01-27T12:43:20.366Z,100.00
2023-01-27T12:46:07.526Z,100.00
2023-01-27T12:48:46.922Z,100.00
2023-01-27T12:51:19.693Z,100.00
2023-01-27T12:53:52.133Z,100.00
2023-01-27T12:56:25.105Z,100.00
2023-01-27T12:59:03.895Z,100.00
2023-01-27T13:01:37.550Z,100.00
2023-01-27T13:04:13.114Z,100.00
2023-01-27T13:06:47.750Z,100.00
2023-01-27T13:09:30.513Z,100.00
2023-01-27T13:12:04.429Z,100.00
2023-01-27T13:14:43.319Z,100.00
2023-01-27T13:17:32.328Z,100.00
2023-01-27T13:20:06.228Z,100.00
2023-01-27T13:22:42.998Z,100.00
2023-01-27T13:25:20.807Z,100.00
2023-01-27T13:27:52.953Z,100.00
2023-01-27T13:30:31.959Z,99.22
2023-01-27T13:33:06.938Z,98.50
2023-01-27T13:35:41.119Z,99.74
2023-01-27T13:38:18.657Z,97.76
2023-01-27T13:40:49.570Z,97.69
2023-01-27T13:43:25.502Z,97.18
2023-01-27T13:46:03.299Z,96.61
2023-01-27T13:48:37.872Z,98.38
2023-01-27T13:51:11.921Z,97.40
2023-01-27T13:53:42.709Z,97.88
2023-01-27T13:56:26.963Z,97.56
2023-01-27T13:59:08.613Z,97.88
2023-01-27T14:01:51.282Z,98.48
2023-01-27T14:04:41.753Z,98.36
2023-01-27T14:07:22.195Z,99.12
2023-01-27T14:10:03.450Z,98.19
2023-01-27T14:12:50.167Z,97.63
2023-01-27T14:15:30.080Z,97.88
2023-01-27T14:18:15.629Z,98.58
2023-01-27T14:20:56.078Z,98.36
2023-01-27T14:23:38.075Z,98.18
2023-01-27T14:26:17.484Z,97.66
2023-01-27T14:29:00.523Z,97.84
2023-01-27T14:31:43.144Z,97.86
2023-01-27T14:34:42.374Z,97.69
2023-01-27T14:37:22.169Z,98.26
2023-01-27T14:40:03.553Z,98.09
2023-01-27T14:42:42.287Z,98.09
2023-01-27T14:45:22.263Z,97.69
2023-01-27T14:48:02.544Z,97.26
2023-01-27T14:50:41.405Z,97.50
2023-01-27T14:53:33.575Z,96.66
2023-01-27T14:56:14.958Z,97.25
2023-01-27T14:58:54.008Z,97.68
2023-01-27T15:01:42.924Z,97.39
2023-01-27T15:04:36.397Z,96.57
2023-01-27T15:07:14.525Z,97.49
2023-01-27T15:09:57.442Z,97.75
2023-01-27T15:12:40.146Z,97.59
2023-01-27T15:15:37.014Z,97.14
2023-01-27T15:18:29.736Z,97.68
2023-01-27T15:21:14.859Z,97.65
2023-01-27T15:24:09.097Z,97.71
2023-01-27T15:26:40.714Z,98.11
2023-01-27T15:29:15.532Z,97.43
2023-01-27T15:31:45.815Z,97.68
2023-01-27T15:34:23.836Z,97.51
2023-01-27T15:37:23.173Z,97.10
2023-01-27T15:40:11.772Z,97.61
2023-01-27T15:42:55.331Z,96.79
2023-01-27T15:45:31.488Z,97.33
2023-01-27T15:48:03.980Z,97.60
2023-01-27T15:50:36.255Z,97.73
2023-01-27T15:53:14.043Z,97.34
2023-01-27T15:55:57.123Z,97.00
2023-01-27T15:58:32.262Z,97.12
2023-01-27T16:01:03.450Z,96.57
2023-01-27T16:03:37.652Z,96.61
2023-01-27T16:06:12.529Z,97.21
2023-01-27T16:08:46.914Z,97.42
2023-01-27T16:11:43.405Z,96.78
2023-01-27T16:14:35.906Z,97.18
2023-01-27T16:17:12.875Z,97.54
2023-01-27T16:19:48.128Z,97.18
2023-01-27T16:22:22.880Z,97.27
2023-01-27T16:24:58.775Z,97.22
2023-01-27T16:27:41.474Z,97.11
2023-01-27T16:30:20.243Z,97.74
2023-01-27T16:33:06.891Z,97.55
2023-01-27T16:35:45.766Z,97.68
2023-01-27T16:38:25.627Z,97.76
2023-01-27T16:40:59.423Z,98.09
2023-01-27T16:43:36.536Z,97.54
2023-01-27T16:46:06.657Z,97.75
2023-01-27T16:48:40.835Z,97.57
2023-01-27T16:51:18.162Z,97.34
2023-01-27T16:53:51.243Z,98.02
2023-01-27T16:56:24.786Z,97.67
2023-01-27T16:59:02.649Z,97.38
2023-01-27T17:01:40.758Z,97.57
2023-01-27T17:04:20.097Z,98.03
2023-01-27T17:06:51.656Z,97.81
2023-01-27T17:09:25.846Z,98.00
2023-01-27T17:11:56.082Z,97.45
2023-01-27T17:14:34.352Z,97.30
2023-01-27T17:17:06.701Z,97.96
2023-01-27T17:19:38.577Z,97.93
2023-01-27T17:22:11.548Z,97.11
2023-01-27T17:24:49.988Z,96.97
2023-01-27T17:27:26.997Z,96.87
2023-01-27T17:30:16.775Z,96.87
2023-01-27T17:32:52.354Z,97.17
2023-01-27T17:35:25.927Z,97.36
2023-01-27T17:38:06.712Z,96.84
2023-01-27T17:40:39.625Z,96.96
2023-01-27T17:43:26.054Z,97.13
2023-01-27T17:46:14.728Z,96.73
2023-01-27T17:48:54.097Z,97.27
2023-01-27T17:51:27.303Z,97.06
2023-01-27T17:53:58.397Z,97.13
2023-01-27T17:56:33.544Z,96.96
2023-01-27T17:59:07.964Z,97.39
2023-01-27T18:01:43.012Z,97.39
2023-01-27T18:04:14.148Z,97.85
2023-01-27T18:06:45.169Z,97.14
2023-01-27T18:09:21.329Z,97.39
2023-01-27T18:11:59.696Z,97.67
2023-01-27T18:14:30.824Z,97.24
2023-01-27T18:17:05.475Z,97.47
2023-01-27T18:19:36.036Z,97.41
2023-01-27T18:22:16.492Z,96.75
2023-01-27T18:24:53.771Z,96.61
2023-01-27T18:27:33.156Z,96.64
2023-01-27T18:30:10.835Z,96.79
2023-01-27T18:32:48.559Z,96.92
2023-01-27T18:35:27.290Z,96.92
2023-01-27T18:38:01.612Z,97.09
2023-01-27T18:40:33.920Z,97.15
2023-01-27T18:43:05.771Z,97.60
2023-01-27T18:45:35.651Z,97.51
2023-01-27T18:48:13.196Z,97.01
2023-01-27T18:50:46.019Z,97.68
2023-01-27T18:53:18.692Z,98.10
2023-01-27T18:55:48.691Z,97.78
2023-01-27T18:58:18.551Z,97.68
2023-01-27T19:00:50.748Z,97.52
2023-01-27T19:03:26.772Z,97.22
2023-01-27T19:05:57.448Z,97.46
2023-01-27T19:08:28.085Z,97.83
2023-01-27T19:11:00.097Z,97.23
2023-01-27T19:13:29.850Z,97.52
2023-01-27T19:16:00.693Z,97.60
2023-01-27T19:18:36.683Z,97.09
2023-01-27T19:21:07.174Z,96.74
2023-01-27T19:23:37.130Z,97.25
2023-01-27T19:26:08.269Z,97.54
2023-01-27T19:28:39.771Z,97.43
2023-01-27T19:31:10.723Z,97.29
2023-01-27T19:33:45.181Z,97.02
2023-01-27T19:36:22.769Z,96.66
2023-01-27T19:38:55.902Z,97.04
2023-01-27T19:41:25.981Z,96.54
2023-01-27T19:43:55.755Z,96.67
2023-01-27T19:46:25.975Z,95.48
2023-01-27T19:48:58.419Z,95.59
2023-01-27T19:51:28.278Z,96.00
2023-01-27T19:53:58.580Z,95.72
2023-01-27T19:56:33.591Z,94.42
2023-01-27T19:59:04.121Z,95.18
2023-01-27T20:01:34.242Z,95.07
2023-01-27T20:04:06.785Z,95.05
2023-01-27T20:06:37.122Z,95.18
2023-01-27T20:09:07.436Z,94.67
2023-01-27T20:11:39.091Z,94.71
2023-01-27T20:14:10.797Z,94.43
2023-01-27T20:16:40.838Z,94.46
2023-01-27T20:19:15.611Z,94.49
2023-01-27T20:21:46.019Z,95.16
2023-01-27T20:24:18.700Z,94.80
2023-01-27T20:26:48.956Z,94.55
2023-01-27T20:29:18.845Z,95.03
2023-01-27T20:31:49.752Z,94.74
2023-01-27T20:34:22.264Z,94.80
2023-01-27T20:36:52.250Z,95.48
2023-01-27T20:39:22.152Z,95.48
2023-01-27T20:41:53.218Z,96.02
2023-01-27T20:44:22.979Z,95.49
2023-01-27T20:46:52.827Z,95.78
2023-01-27T20:49:25.220Z,95.69
2023-01-27T20:51:55.516Z,95.73
2023-01-27T20:54:25.568Z,96.18
2023-01-27T20:56:55.452Z,96.25
2023-01-27T20:59:25.696Z,96.15
2023-01-27T21:01:55.725Z,96.32
2023-01-27T21:04:28.771Z,96.12
2023-01-27T21:06:58.615Z,96.23
2023-01-27T21:09:28.278Z,96.12
2023-01-27T21:11:58.080Z,96.06
2023-01-27T21:14:28.114Z,96.77
2023-01-27T21:16:58.071Z,96.61
2023-01-27T21:19:30.783Z,96.46
2023-01-27T21:22:02.052Z,96.16
2023-01-27T21:24:31.844Z,95.49
2023-01-27T21:27:01.754Z,95.60
2023-01-27T21:29:32.115Z,95.43
2023-01-27T21:32:02.200Z,94.90
2023-01-27T21:34:34.630Z,94.99
2023-01-27T21:37:04.359Z,95.18
2023-01-27T21:39:34.198Z,95.15
2023-01-27T21:42:16.334Z,95.58
2023-01-27T21:44:58.522Z,95.44
2023-01-27T21:47:28.450Z,95.84
2023-01-27T21:50:04.407Z,96.50
2023-01-27T21:52:37.775Z,95.47
2023-01-27T21:55:09.933Z,95.40
2023-01-27T21:57:39.832Z,95.64
2023-01-27T22:00:13.772Z,95.19
2023-01-27T22:02:43.833Z,95.41
2023-01-27T22:05:16.517Z,95.59
2023-01-27T22:07:48.322Z,94.92
2023-01-27T22:10:20.981Z,94.78
2023-01-27T22:12:51.380Z,95.35
2023-01-27T22:15:22.817Z,95.46
2023-01-27T22:17:52.695Z,94.59
2023-01-27T22:20:25.236Z,94.79
2023-01-27T22:22:55.149Z,94.51
2023-01-27T22:25:27.157Z,94.83
2023-01-27T22:27:57.836Z,94.95
2023-01-27T22:30:27.882Z,94.99
2023-01-27T22:32:57.826Z,94.86
2023-01-27T22:35:30.462Z,94.16
2023-01-27T22:38:00.220Z,94.64
2023-01-27T22:40:30.061Z,94.86
2023-01-27T22:42:59.774Z,94.73
2023-01-27T22:45:29.731Z,94.98
2023-01-27T22:47:59.554Z,94.75
2023-01-27T22:50:31.936Z,95.24
2023-01-27T22:53:01.736Z,95.13
2023-01-27T22:55:31.511Z,95.70
2023-01-27T22:58:01.318Z,95.80
2023-01-27T23:00:31.107Z,94.96
2023-01-27T23:03:00.803Z,95.11
2023-01-27T23:05:33.548Z,94.35
2023-01-27T23:08:04.342Z,94.47
2023-01-27T23:10:35.080Z,94.22
2023-01-27T23:13:05.068Z,94.61
2023-01-27T23:15:35.887Z,94.80
2023-01-27T23:18:11.355Z,94.63
2023-01-27T23:20:45.805Z,94.04
2023-01-27T23:23:15.716Z,94.50
2023-01-27T23:25:46.733Z,95.14
2023-01-27T23:28:18.384Z,94.96
2023-01-27T23:30:49.624Z,94.21
2023-01-27T23:33:21.511Z,93.69
2023-01-27T23:35:59.249Z,94.36
2023-01-27T23:38:32.916Z,94.56
2023-01-27T23:41:04.592Z,93.89
2023-01-27T23:43:34.849Z,93.33
2023-01-27T23:46:04.575Z,92.51
2023-01-27T23:48:34.583Z,92.92
2023-01-27T23:51:12.927Z,93.41
2023-01-27T23:53:42.707Z,93.73
2023-01-27T23:56:14.392Z,93.88
2023-01-27T23:58:45.294Z,94.16
